Time;durP1;ratioP1;P1;durP2;ratioP2;P2;SDS_P1;SDS_P2;PMS_P1;PMS_P2;Temp;Humidity;BMP_temperature;BMP_pressure;BME280_temperature;BME280_humidity;BME280_pressure;Samples;Min_cycle;Max_cycle;Signal;HPM_P1;HPM_P2
2021/07/28 00:00:06;;;;;;;;;;;;;;;22.28;54.58;101012.98;448551;117;923836;-71
2021/07/28 00:01:30;;;;;;;;;;;;;;;22.26;54.72;101012.45;448076;117;922636;-71
2021/07/28 00:02:52;;;;;;;;;;;;;;;22.22;54.83;101011.32;448527;117;921524;-72
2021/07/28 00:04:14;;;;;;;;;;;;;;;22.22;54.82;101013.30;448816;117;921591;-72
2021/07/28 00:05:35;;;;;;;;;;;;;;;22.21;54.85;101011.62;447380;117;921740;-71
2021/07/28 00:06:57;;;;;;;;;;;;;;;22.21;54.88;101011.62;447914;117;922547;-69
2021/07/28 00:08:21;;;;;;;;;;;;;;;22.21;54.96;101011.62;447864;117;922646;-69
2021/07/28 00:09:42;;;;;;;;;;;;;;;22.21;55.01;101012.47;448969;117;922676;-68
2021/07/28 00:11:06;;;;;;;;;;;;;;;22.20;55.05;101012.73;446658;117;922725;-68
2021/07/28 00:12:28;;;;;;;;;;;;;;;22.19;55.14;101019.40;448373;117;924050;-68
2021/07/28 00:13:50;;;;;;;;;;;;;;;22.19;55.21;101011.06;447908;117;923061;-69
2021/07/28 00:15:12;;;;;;;;;;;;;;;22.16;55.26;101014.42;447607;117;922699;-68
2021/07/28 00:16:34;;;;;;;;;;;;;;;22.15;55.33;101010.80;449006;117;922870;-69
2021/07/28 00:18:00;;;;;;;;;;;;;;;22.16;55.47;101014.42;448485;117;923212;-69
2021/07/28 00:19:26;;;;;;;;;;;;;;;22.14;55.55;101013.86;448965;117;922641;-69
2021/07/28 00:23:50;;;;;;;;;;;;;;;22.12;56.24;101013.30;448144;117;922565;-70
2021/07/28 00:25:13;;;;;;;;;;;;;;;22.12;56.50;101013.30;448133;117;923143;-68
2021/07/28 00:26:34;;;;;;;;;;;;;;;22.09;56.64;101009.15;436040;120;922472;-70
2021/07/28 00:27:56;;;;;;;;;;;;;;;22.09;56.84;101011.09;448093;117;922704;-70
2021/07/28 00:29:18;;;;;;;;;;;;;;;22.08;57.02;101009.42;447829;117;922605;-67
2021/07/28 00:30:43;;;;;;;;;;;;;;;22.05;57.16;101008.86;447262;117;921693;-69
2021/07/28 00:32:05;;;;;;;;;;;;;;;22.03;57.27;101005.55;447592;117;922708;-65
2021/07/28 00:33:27;;;;;;;;;;;;;;;22.00;57.32;101008.88;447254;117;925168;-70
2021/07/28 00:34:49;;;;;;;;;;;;;;;21.98;57.49;101007.50;450094;117;923127;-67
2021/07/28 00:36:11;;;;;;;;;;;;;;;21.94;57.74;100998.05;448699;117;922623;-68
2021/07/28 00:37:33;;;;;;;;;;;;;;;21.88;57.89;101000.00;446596;117;921812;-68
2021/07/28 00:38:54;;;;;;;;;;;;;;;21.83;58.18;100991.64;448411;117;921572;-69
2021/07/28 00:40:16;;;;;;;;;;;;;;;21.78;58.40;100991.66;448193;117;921456;-69
2021/07/28 00:41:41;;;;;;;;;;;;;;;21.72;58.59;101000.29;446838;117;921576;-69
2021/07/28 00:43:10;;;;;;;;;;;;;;;21.67;58.72;100997.52;447730;117;921474;-68
2021/07/28 00:44:31;;;;;;;;;;;;;;;21.62;58.90;100995.55;447305;117;921563;-68
2021/07/28 00:45:53;;;;;;;;;;;;;;;21.59;59.04;100990.57;447424;117;921634;-68
2021/07/28 00:47:14;;;;;;;;;;;;;;;21.56;59.17;100994.72;447734;115;921402;-69
2021/07/28 00:48:36;;;;;;;;;;;;;;;21.53;59.35;100991.67;447362;117;921507;-68
2021/07/28 00:50:01;;;;;;;;;;;;;;;21.50;59.50;100989.47;447765;117;921505;-68
2021/07/28 00:51:22;;;;;;;;;;;;;;;21.46;59.68;100994.72;447278;117;921490;-69
2021/07/28 00:52:48;;;;;;;;;;;;;;;21.43;59.86;100994.45;447441;117;921517;-69
2021/07/28 00:54:08;;;;;;;;;;;;;;;21.40;60.01;100993.05;446802;117;923140;-72
2021/07/28 00:55:31;;;;;;;;;;;;;;;21.36;60.15;100999.44;446115;117;922920;-70
2021/07/28 00:56:53;;;;;;;;;;;;;;;21.32;60.34;100995.55;447289;117;922694;-70
2021/07/28 00:58:16;;;;;;;;;;;;;;;21.29;60.48;100993.31;447421;117;922700;-72
2021/07/28 00:59:38;;;;;;;;;;;;;;;21.25;60.71;100993.05;447303;117;922635;-71
2021/07/28 01:01:00;;;;;;;;;;;;;;;21.21;60.86;100995.55;446681;117;922631;-69
2021/07/28 01:02:22;;;;;;;;;;;;;;;21.18;61.02;100993.31;446716;117;922867;-69
2021/07/28 01:03:45;;;;;;;;;;;;;;;21.14;61.12;100994.97;447356;117;923047;-68
2021/07/28 01:05:06;;;;;;;;;;;;;;;21.11;61.32;101000.22;448423;117;923140;-69
2021/07/28 01:06:28;;;;;;;;;;;;;;;21.08;61.46;100998.81;447088;117;922637;-67
2021/07/28 01:07:50;;;;;;;;;;;;;;;21.06;61.57;100997.44;446516;118;922666;-68
2021/07/28 01:09:12;;;;;;;;;;;;;;;21.04;61.62;101000.47;441658;121;922997;-66
2021/07/28 01:10:34;;;;;;;;;;;;;;;21.03;61.68;100997.97;436823;120;922742;-67
2021/07/28 01:12:03;;;;;;;;;;;;;;;20.99;61.66;101003.23;437081;120;924796;-67
2021/07/28 01:13:28;;;;;;;;;;;;;;;;;;443052;118;922676;-67
2021/07/28 01:14:51;;;;;;;;;;;;;;;20.90;61.67;100998.47;450233;117;922643;-67
2021/07/28 01:16:15;;;;;;;;;;;;;;;20.85;61.72;101009.55;448998;117;923194;-67
2021/07/28 01:17:37;;;;;;;;;;;;;;;20.79;61.76;101005.93;449532;117;922663;-67
2021/07/28 01:19:01;;;;;;;;;;;;;;;20.75;61.85;101004.81;449931;117;922601;-67
2021/07/28 01:20:23;;;;;;;;;;;;;;;20.72;62.01;101002.60;448630;117;922552;-67
2021/07/28 01:21:47;;;;;;;;;;;;;;;20.71;62.09;101006.47;450004;117;921501;-67
2021/07/28 01:23:15;;;;;;;;;;;;;;;20.70;62.12;101008.41;449237;117;921618;-68
2021/07/28 01:24:36;;;;;;;;;;;;;;;20.67;62.18;101008.12;449455;117;922733;-69
2021/07/28 01:26:00;;;;;;;;;;;;;;;20.61;62.23;101006.44;448879;117;922614;-68
2021/07/28 01:27:22;;;;;;;;;;;;;;;20.57;62.29;101010.83;448684;117;922668;-68
2021/07/28 01:28:44;;;;;;;;;;;;;;;20.51;62.46;101007.20;453144;115;921373;-69
2021/07/28 01:30:06;;;;;;;;;;;;;;;20.47;62.54;101003.31;453283;117;921411;-68
2021/07/28 01:31:28;;;;;;;;;;;;;;;20.43;62.63;101009.67;452926;115;922678;-68
2021/07/28 01:32:51;;;;;;;;;;;;;;;20.42;62.77;101010.77;453216;115;922546;-67
2021/07/28 01:34:13;;;;;;;;;;;;;;;20.43;62.90;101006.90;453806;115;921699;-68
2021/07/28 01:35:38;;;;;;;;;;;;;;;20.40;62.95;101005.48;454081;115;921419;-67
2021/07/28 01:37:00;;;;;;;;;;;;;;;20.39;63.04;101010.22;453871;115;921496;-68
2021/07/28 01:38:25;;;;;;;;;;;;;;;20.39;62.99;101007.45;453228;117;921489;-68
2021/07/28 01:39:44;;;;;;;;;;;;;;;20.41;62.85;101012.70;453854;117;921459;-68
2021/07/28 01:41:06;;;;;;;;;;;;;;;20.44;62.81;101011.34;452922;115;921700;-68
2021/07/28 01:42:28;;;;;;;;;;;;;;;20.46;62.78;101009.12;453162;116;921712;-68
2021/07/28 01:43:50;;;;;;;;;;;;;;;20.47;62.81;101016.33;453642;115;921615;-69
2021/07/28 01:45:12;;;;;;;;;;;;;;;20.47;62.82;101013.56;453723;117;921752;-67
2021/07/28 01:46:33;;;;;;;;;;;;;;;20.47;62.73;101014.39;452278;117;921459;-67
2021/07/28 01:47:55;;;;;;;;;;;;;;;20.48;62.78;101023.55;453887;115;921513;-68
2021/07/28 01:49:16;;;;;;;;;;;;;;;20.49;62.72;101022.45;453224;115;921582;-68
2021/07/28 01:50:38;;;;;;;;;;;;;;;20.49;62.69;101020.52;453407;115;921375;-67
2021/07/28 01:51:59;;;;;;;;;;;;;;;20.50;62.79;101026.89;453658;117;922629;-70
2021/07/28 01:53:22;;;;;;;;;;;;;;;20.47;62.90;101027.41;453483;117;922644;-68
2021/07/28 01:54:44;;;;;;;;;;;;;;;20.44;62.93;101023.26;443246;119;922707;-68
2021/07/28 01:56:06;;;;;;;;;;;;;;;20.44;63.03;101028.80;444757;120;923149;-68
2021/07/28 01:57:27;;;;;;;;;;;;;;;20.44;63.06;101023.26;452227;116;922698;-65
2021/07/28 01:58:54;;;;;;;;;;;;;;;20.43;63.16;101027.13;444876;119;922811;-68
2021/07/28 02:00:16;;;;;;;;;;;;;;;20.41;63.22;101021.02;445668;118;922735;-68
2021/07/28 02:01:38;;;;;;;;;;;;;;;20.40;63.24;101028.48;451968;117;922635;-68
2021/07/28 02:03:03;;;;;;;;;;;;;;;20.40;63.29;101017.41;445884;115;922582;-67
2021/07/28 02:04:26;;;;;;;;;;;;;;;20.42;63.27;101035.70;449971;117;922706;-67
2021/07/28 02:05:48;;;;;;;;;;;;;;;20.40;63.34;101025.72;452518;117;922616;-67
2021/07/28 02:07:09;;;;;;;;;;;;;;;20.42;63.37;101027.39;451022;117;922685;-68
2021/07/28 02:08:31;;;;;;;;;;;;;;;20.41;63.38;101029.32;450811;118;922855;-68
2021/07/28 02:09:53;;;;;;;;;;;;;;;20.39;63.47;101021.30;451072;117;922559;-68
2021/07/28 02:11:15;;;;;;;;;;;;;;;20.37;63.61;101029.03;452566;117;922876;-68
2021/07/28 02:12:36;;;;;;;;;;;;;;;20.35;63.75;101020.16;447503;118;921580;-69
2021/07/28 02:13:57;;;;;;;;;;;;;;;20.34;63.82;101021.25;447785;119;922625;-67
2021/07/28 02:15:23;;;;;;;;;;;;;;;20.33;63.94;101022.38;447317;118;922642;-66
2021/07/28 02:16:43;;;;;;;;;;;;;;;20.33;64.00;101022.38;447766;118;922726;-67
2021/07/28 02:18:05;;;;;;;;;;;;;;;20.30;64.13;101016.48;448103;118;923379;-66
2021/07/28 02:19:27;;;;;;;;;;;;;;;20.27;64.26;101014.27;447465;118;923089;-67
2021/07/28 02:20:49;;;;;;;;;;;;;;;20.25;64.41;101011.76;447466;118;922641;-64
2021/07/28 02:22:11;;;;;;;;;;;;;;;20.23;64.52;101015.91;453396;117;921510;-66
2021/07/28 02:23:32;;;;;;;;;;;;;;;20.19;64.69;101018.37;452960;115;922684;-66
2021/07/28 02:24:54;;;;;;;;;;;;;;;20.21;64.76;101018.95;453200;115;922642;-66
2021/07/28 02:26:16;;;;;;;;;;;;;;;20.22;64.76;101017.84;452774;115;921465;-67
2021/07/28 02:27:38;;;;;;;;;;;;;;;20.25;64.80;101020.06;451759;117;921615;-66
2021/07/28 02:28:59;;;;;;;;;;;;;;;20.28;64.65;101021.48;447043;117;921565;-67
2021/07/28 02:30:21;;;;;;;;;;;;;;;20.32;64.61;101026.24;445839;118;921462;-67
2021/07/28 02:31:42;;;;;;;;;;;;;;;20.37;64.50;101017.95;437283;119;921420;-67
2021/07/28 02:33:03;;;;;;;;;;;;;;;20.40;64.33;101025.72;438530;119;921531;-65
2021/07/28 02:34:24;;;;;;;;;;;;;;;20.44;64.28;101022.42;446286;118;921495;-66
2021/07/28 02:35:46;;;;;;;;;;;;;;;20.47;64.21;101024.64;447200;118;921640;-66
2021/07/28 02:37:09;;;;;;;;;;;;;;;20.48;64.17;101029.92;446950;118;921594;-67
2021/07/28 02:38:30;;;;;;;;;;;;;;;20.50;64.16;101035.20;445967;118;921423;-67
2021/07/28 02:39:52;;;;;;;;;;;;;;;20.50;64.13;101029.66;442463;118;923129;-67
2021/07/28 02:41:13;;;;;;;;;;;;;;;20.52;64.11;101041.28;439960;119;922665;-67
2021/07/28 02:42:36;;;;;;;;;;;;;;;20.54;64.09;101034.39;440436;119;922716;-66
2021/07/28 02:43:58;;;;;;;;;;;;;;;20.58;64.00;101034.67;445912;119;922642;-67
2021/07/28 02:45:20;;;;;;;;;;;;;;;20.59;63.98;101036.34;446426;118;923120;-67
2021/07/28 02:46:41;;;;;;;;;;;;;;;20.62;63.95;101035.81;445477;118;923270;-67
2021/07/28 02:48:04;;;;;;;;;;;;;;;20.62;63.95;101033.85;446658;117;922653;-67
2021/07/28 02:49:25;;;;;;;;;;;;;;;20.62;63.93;101031.08;438318;119;922743;-67
2021/07/28 02:50:47;;;;;;;;;;;;;;;20.64;63.92;101039.13;439823;120;922663;-70
2021/07/28 02:52:10;;;;;;;;;;;;;;;20.64;63.88;101033.59;440296;121;923806;-70
2021/07/28 02:53:32;;;;;;;;;;;;;;;20.64;63.91;101036.36;439235;121;922678;-71
2021/07/28 02:54:53;;;;;;;;;;;;;;;20.64;63.97;101039.97;439841;120;922707;-68
2021/07/28 02:56:16;;;;;;;;;;;;;;;20.63;64.03;101038.30;439270;121;923446;-71
2021/07/28 02:57:38;;;;;;;;;;;;;;;20.62;64.08;101035.81;439336;120;922660;-68
2021/07/28 02:59:00;;;;;;;;;;;;;;;20.62;64.08;101027.50;439964;120;923094;-68
2021/07/28 03:00:22;;;;;;;;;;;;;;;20.62;64.10;101036.63;444895;118;923101;-71
2021/07/28 03:01:44;;;;;;;;;;;;;;;20.65;63.99;101038.03;446290;117;921771;-72
2021/07/28 03:03:08;;;;;;;;;;;;;;;20.68;63.93;101043.02;435558;120;922723;-72
2021/07/28 03:04:30;;;;;;;;;;;;;;;20.69;63.88;101042.77;447231;117;922651;-71
2021/07/28 03:05:52;;;;;;;;;;;;;;;20.72;63.79;101035.86;446728;118;922638;-75
2021/07/28 03:07:13;;;;;;;;;;;;;;;20.73;63.79;101034.76;441730;118;922673;-72
2021/07/28 03:08:35;;;;;;;;;;;;;;;20.73;63.80;101035.56;436768;120;921529;-70
2021/07/28 03:09:56;;;;;;;;;;;;;;;20.74;63.83;101033.63;435563;121;922651;-69
2021/07/28 03:11:19;;;;;;;;;;;;;;;20.75;63.87;101036.14;446051;118;922742;-71
2021/07/28 03:12:40;;;;;;;;;;;;;;;20.76;63.83;101045.29;435334;119;921636;-72
2021/07/28 03:14:02;;;;;;;;;;;;;;;20.76;63.85;101040.58;446555;118;921376;-69
2021/07/28 03:15:23;;;;;;;;;;;;;;;20.79;63.84;101048.34;438160;119;923122;-71
2021/07/28 03:16:45;;;;;;;;;;;;;;;20.81;63.80;101040.59;439436;120;921701;-69
2021/07/28 03:18:07;;;;;;;;;;;;;;;20.83;63.78;101043.11;439886;119;921443;-69
2021/07/28 03:19:28;;;;;;;;;;;;;;;20.84;63.83;101032.86;447129;118;921334;-72
2021/07/28 03:20:50;;;;;;;;;;;;;;;20.84;63.86;101030.09;446874;118;921640;-71
2021/07/28 03:22:12;;;;;;;;;;;;;;;20.83;63.99;101020.94;446789;118;921528;-72
2021/07/28 03:23:33;;;;;;;;;;;;;;;20.84;64.09;101025.34;439766;119;921451;-69
2021/07/28 03:24:56;;;;;;;;;;;;;;;20.86;64.14;101025.92;446571;119;921578;-71
2021/07/28 03:26:17;;;;;;;;;;;;;;;20.88;64.10;101026.48;437446;119;921560;-71
2021/07/28 03:27:38;;;;;;;;;;;;;;;20.91;64.06;101028.70;439488;119;921719;-72
2021/07/28 03:28:59;;;;;;;;;;;;;;;20.94;63.98;101024.57;448970;117;921455;-71
2021/07/28 03:30:21;;;;;;;;;;;;;;;20.96;63.94;101031.48;448116;118;921511;-73
2021/07/28 03:31:42;;;;;;;;;;;;;;;20.98;63.85;101034.84;448822;119;921443;-74
2021/07/28 03:33:04;;;;;;;;;;;;;;;21.01;63.86;101031.50;448725;116;923577;-73
2021/07/28 03:34:26;;;;;;;;;;;;;;;21.04;63.79;101039.29;447531;117;922648;-73
2021/07/28 03:35:48;;;;;;;;;;;;;;;21.06;63.77;101031.52;448827;117;922680;-76
2021/07/28 03:37:10;;;;;;;;;;;;;;;21.08;63.73;101029.31;448492;119;922412;-69
2021/07/28 03:38:31;;;;;;;;;;;;;;;21.08;63.75;101037.63;448483;117;922526;-68
2021/07/28 03:40:00;;;;;;;;;;;;;;;21.08;63.84;101034.86;448057;119;922718;-70
2021/07/28 03:41:17;;;;;;;;;;;;;;;21.07;63.87;101033.19;448288;118;921471;-70
2021/07/28 03:42:41;;;;;;;;;;;;;;;21.10;63.89;101032.66;448249;117;922741;-70
2021/07/28 03:44:03;;;;;;;;;;;;;;;21.13;63.83;101031.26;448727;118;922688;-69
2021/07/28 03:45:25;;;;;;;;;;;;;;;21.15;63.86;101032.70;448893;118;923252;-68
2021/07/28 03:46:47;;;;;;;;;;;;;;;21.19;63.83;101033.80;447690;117;924336;-69
2021/07/28 03:48:09;;;;;;;;;;;;;;;21.21;63.81;101031.61;447809;116;922659;-67
2021/07/28 03:49:31;;;;;;;;;;;;;;;21.23;63.88;101031.30;448508;119;922754;-70
2021/07/28 03:50:53;;;;;;;;;;;;;;;21.25;63.89;101033.81;447678;117;922737;-69
2021/07/28 03:52:15;;;;;;;;;;;;;;;21.27;64.01;101028.84;447627;117;922619;-68
2021/07/28 03:53:37;;;;;;;;;;;;;;;21.30;64.08;101036.59;449241;119;923256;-71
2021/07/28 03:54:59;;;;;;;;;;;;;;;21.30;64.15;101033.81;448761;117;922658;-70
2021/07/28 03:56:24;;;;;;;;;;;;;;;21.32;64.13;101035.23;447947;117;921469;-70
2021/07/28 03:57:46;;;;;;;;;;;;;;;21.36;64.12;101035.50;448126;118;923700;-70
2021/07/28 03:59:08;;;;;;;;;;;;;;;21.38;64.13;101034.13;448639;118;922634;-69
2021/07/28 04:00:30;;;;;;;;;;;;;;;21.42;64.16;101031.62;447924;117;922661;-69
2021/07/28 04:01:52;;;;;;;;;;;;;;;21.46;64.07;101039.12;448957;119;922649;-70
2021/07/28 04:03:14;;;;;;;;;;;;;;;21.52;64.04;101035.23;448552;116;921535;-68
2021/07/28 04:04:41;;;;;;;;;;;;;;;21.59;64.02;101034.97;448292;117;921488;-71
2021/07/28 04:06:02;;;;;;;;;;;;;;;21.66;63.91;101032.77;448550;119;921461;-68
2021/07/28 04:07:24;;;;;;;;;;;;;;;21.71;63.95;101032.77;441359;121;921544;-69
2021/07/28 04:08:45;;;;;;;;;;;;;;;21.76;63.98;101038.31;446083;117;921581;-68
2021/07/28 04:10:07;;;;;;;;;;;;;;;21.82;63.87;101034.42;448552;119;921434;-70
2021/07/28 04:11:28;;;;;;;;;;;;;;;21.88;63.83;101029.70;447563;118;921434;-70
2021/07/28 04:12:49;;;;;;;;;;;;;;;21.96;63.67;101035.54;448105;117;921659;-70
2021/07/28 04:14:11;;;;;;;;;;;;;;;22.01;63.53;101034.70;449383;118;921580;-72
2021/07/28 04:15:32;;;;;;;;;;;;;;;22.07;63.44;101029.97;448683;118;921495;-67
2021/07/28 04:16:54;;;;;;;;;;;;;;;22.12;63.32;101032.73;448330;117;922691;-68
2021/07/28 04:18:16;;;;;;;;;;;;;;;22.18;63.21;101037.17;447031;119;922760;-71
2021/07/28 04:19:38;;;;;;;;;;;;;;;22.23;63.10;101031.60;449163;119;922678;-70
2021/07/28 04:21:00;;;;;;;;;;;;;;;22.28;63.05;101032.42;447912;117;921416;-71
2021/07/28 04:22:21;;;;;;;;;;;;;;;22.35;63.05;101032.13;447709;118;922580;-68
2021/07/28 04:23:43;;;;;;;;;;;;;;;22.40;62.94;101034.89;448693;117;922609;-73
2021/07/28 04:25:06;;;;;;;;;;;;;;;22.47;62.75;101029.87;448525;118;923154;-71
2021/07/28 04:26:27;;;;;;;;;;;;;;;22.52;62.57;101027.08;448088;117;922690;-68
2021/07/28 04:27:49;;;;;;;;;;;;;;;22.57;62.43;101029.84;440424;121;921585;-69
2021/07/28 04:29:11;;;;;;;;;;;;;;;22.62;62.27;101029.82;443174;119;921607;-66
2021/07/28 04:30:33;;;;;;;;;;;;;;;22.67;62.15;101040.08;447197;118;921865;-67
2021/07/28 04:31:54;;;;;;;;;;;;;;;22.70;62.00;101034.80;447238;119;922693;-66
2021/07/28 04:33:16;;;;;;;;;;;;;;;22.72;61.91;101035.36;447714;119;922725;-66
2021/07/28 04:34:39;;;;;;;;;;;;;;;22.75;61.78;101034.81;446773;118;922577;-63
2021/07/28 04:36:01;;;;;;;;;;;;;;;22.77;61.69;101034.53;448298;119;922610;-65
2021/07/28 04:37:23;;;;;;;;;;;;;;;22.79;61.64;101041.45;448066;119;922717;-65
2021/07/28 04:38:46;;;;;;;;;;;;;;;22.82;61.57;101043.66;446759;118;922702;-66
2021/07/28 04:40:08;;;;;;;;;;;;;;;22.83;61.48;101036.98;448226;119;922688;-67
2021/07/28 04:41:30;;;;;;;;;;;;;;;22.86;61.39;101032.81;448097;117;922652;-65
2021/07/28 04:42:52;;;;;;;;;;;;;;;22.88;61.33;101025.83;446465;118;922745;-66
2021/07/28 04:44:15;;;;;;;;;;;;;;;22.91;61.30;101024.45;446996;117;923149;-65
2021/07/28 04:45:39;;;;;;;;;;;;;;;22.94;61.33;101026.64;448272;119;922667;-65
2021/07/28 04:47:01;;;;;;;;;;;;;;;22.97;61.33;101026.09;447971;118;924039;-65
2021/07/28 04:48:23;;;;;;;;;;;;;;;22.98;61.30;101022.19;447273;119;922713;-64
2021/07/28 04:49:45;;;;;;;;;;;;;;;23.01;61.27;101023.55;448003;119;922710;-65
2021/07/28 04:51:07;;;;;;;;;;;;;;;23.03;61.31;101015.77;447614;118;922730;-64
2021/07/28 04:52:29;;;;;;;;;;;;;;;23.06;61.35;101015.17;448032;117;922682;-66
2021/07/28 04:53:51;;;;;;;;;;;;;;;23.06;61.43;101010.45;448580;119;923287;-64
2021/07/28 04:55:14;;;;;;;;;;;;;;;23.08;61.51;101008.22;447190;118;923173;-66
2021/07/28 04:56:36;;;;;;;;;;;;;;;23.11;61.69;101004.84;442700;119;921520;-63
2021/07/28 04:57:57;;;;;;;;;;;;;;;23.14;61.63;101009.02;448796;119;921460;-63
2021/07/28 04:59:19;;;;;;;;;;;;;;;23.17;61.53;101005.64;449098;116;921444;-63
2021/07/28 05:00:40;;;;;;;;;;;;;;;23.20;61.50;101010.66;448073;117;921413;-63
2021/07/28 05:02:02;;;;;;;;;;;;;;;23.24;61.51;101011.73;449705;119;921539;-63
2021/07/28 05:03:24;;;;;;;;;;;;;;;23.25;61.53;101017.02;452435;117;921815;-63
2021/07/28 05:04:45;;;;;;;;;;;;;;;23.29;61.63;101011.69;449511;117;921412;-62
2021/07/28 05:06:07;;;;;;;;;;;;;;;23.32;61.65;101007.52;447651;119;921491;-65
2021/07/28 05:07:28;;;;;;;;;;;;;;;23.34;61.73;101008.88;451787;116;922628;-65
2021/07/28 05:08:50;;;;;;;;;;;;;;;23.36;61.85;101009.42;441199;119;922645;-65
2021/07/28 05:10:13;;;;;;;;;;;;;;;23.40;61.98;101006.88;451600;116;922641;-66
2021/07/28 05:11:35;;;;;;;;;;;;;;;23.43;61.90;101009.11;452234;117;922729;-65
2021/07/28 05:12:56;;;;;;;;;;;;;;;23.45;61.87;101007.67;451104;116;921689;-63
2021/07/28 05:14:18;;;;;;;;;;;;;;;23.47;61.87;101005.48;451437;118;922689;-64
2021/07/28 05:15:40;;;;;;;;;;;;;;;23.50;61.92;101001.27;449720;118;922639;-66
2021/07/28 05:17:02;;;;;;;;;;;;;;;23.52;62.02;101004.60;449493;116;923098;-65
2021/07/28 05:18:24;;;;;;;;;;;;;;;23.55;62.07;100993.70;450027;117;921610;-63
2021/07/28 05:19:45;;;;;;;;;;;;;;;23.59;62.18;100993.97;452120;117;922676;-64
2021/07/28 05:21:07;;;;;;;;;;;;;;;23.61;62.19;100992.55;446328;117;923014;-65
2021/07/28 05:22:29;;;;;;;;;;;;;;;23.64;62.35;101002.28;452314;117;923452;-66
2021/07/28 05:23:51;;;;;;;;;;;;;;;23.66;62.40;100997.23;451850;117;921593;-64
2021/07/28 05:25:13;;;;;;;;;;;;;;;23.68;62.42;100995.00;451382;116;922686;-63
2021/07/28 05:26:35;;;;;;;;;;;;;;;23.71;62.42;100999.16;451492;117;922694;-66
2021/07/28 05:27:58;;;;;;;;;;;;;;;23.74;62.49;100999.41;445827;118;923249;-64
2021/07/28 05:29:20;;;;;;;;;;;;;;;23.77;62.47;100992.40;452335;117;921806;-66
2021/07/28 05:30:42;;;;;;;;;;;;;;;23.79;62.51;100996.56;452641;116;923094;-64
2021/07/28 05:32:04;;;;;;;;;;;;;;;23.82;62.49;100990.40;443381;119;923070;-64
2021/07/28 05:33:26;;;;;;;;;;;;;;;23.84;62.46;100990.95;451935;116;922734;-65
2021/07/28 05:34:50;;;;;;;;;;;;;;;23.86;62.38;100996.23;451005;117;923134;-64
2021/07/28 05:36:11;;;;;;;;;;;;;;;23.87;62.55;100995.91;448408;118;922614;-65
2021/07/28 05:37:33;;;;;;;;;;;;;;;23.88;62.79;100988.39;452339;116;922671;-65
2021/07/28 05:38:56;;;;;;;;;;;;;;;23.88;62.74;100992.02;451737;116;922774;-64
2021/07/28 05:40:18;;;;;;;;;;;;;;;23.89;62.74;100995.63;449191;117;922680;-66
2021/07/28 05:41:39;;;;;;;;;;;;;;;23.88;62.69;100999.53;449882;118;922486;-63
2021/07/28 05:43:01;;;;;;;;;;;;;;;23.86;62.51;100990.66;449059;117;921496;-65
2021/07/28 05:44:22;;;;;;;;;;;;;;;23.86;62.36;100985.09;451609;117;921552;-65
2021/07/28 05:45:44;;;;;;;;;;;;;;;23.85;62.23;100991.78;450434;117;921490;-65
2021/07/28 05:47:06;;;;;;;;;;;;;;;23.84;62.16;100988.16;451640;117;921617;-66
2021/07/28 05:48:31;;;;;;;;;;;;;;;23.84;62.05;100995.69;441832;120;921404;-64
2021/07/28 05:49:51;;;;;;;;;;;;;;;23.84;61.88;100998.47;443268;118;921574;-65
2021/07/28 05:51:12;;;;;;;;;;;;;;;23.83;61.84;100989.28;448015;117;921597;-65
2021/07/28 05:52:33;;;;;;;;;;;;;;;23.84;61.67;100992.90;446842;117;921527;-65
2021/07/28 05:53:55;;;;;;;;;;;;;;;23.85;61.52;100981.47;452065;117;921892;-65
2021/07/28 05:55:16;;;;;;;;;;;;;;;23.86;61.49;100985.09;450914;117;921522;-65
2021/07/28 05:56:38;;;;;;;;;;;;;;;23.88;61.44;100980.88;450804;117;921438;-64
2021/07/28 05:58:00;;;;;;;;;;;;;;;23.92;61.40;100983.92;448766;118;921601;-66
2021/07/28 05:59:21;;;;;;;;;;;;;;;23.93;61.34;100986.39;449857;118;921554;-67
2021/07/28 06:00:43;;;;;;;;;;;;;;;23.97;61.28;100989.44;448263;117;921564;-64
2021/07/28 06:02:05;;;;;;;;;;;;;;;24.01;61.22;100990.50;451633;117;922683;-65
2021/07/28 06:03:27;;;;;;;;;;;;;;;24.02;61.10;100984.64;451784;117;921478;-65
2021/07/28 06:04:48;;;;;;;;;;;;;;;24.04;60.97;100981.55;449792;116;921520;-66
2021/07/28 06:06:10;;;;;;;;;;;;;;;24.05;61.00;100986.83;447839;118;921469;-65
2021/07/28 06:07:32;;;;;;;;;;;;;;;24.07;61.01;100986.54;451498;116;923140;-63
2021/07/28 06:08:54;;;;;;;;;;;;;;;24.10;61.00;100978.41;451128;117;922778;-65
2021/07/28 06:10:16;;;;;;;;;;;;;;;24.11;60.89;100973.67;448580;118;921531;-67
2021/07/28 06:11:38;;;;;;;;;;;;;;;24.13;60.89;100973.39;444252;119;921525;-65
2021/07/28 06:13:00;;;;;;;;;;;;;;;24.15;60.89;100973.94;444728;119;922631;-64
2021/07/28 06:14:22;;;;;;;;;;;;;;;24.16;60.87;100973.62;449251;117;922649;-65
2021/07/28 06:15:25;;;;;;;;;;;;;;;24.18;60.85;100970.58;451754;117;922943;-66
2021/07/28 06:16:29;;;;;;;;;;;;;;;24.20;60.95;100971.95;443354;120;923173;-65
2021/07/28 06:17:51;;;;;;;;;;;;;;;24.21;61.05;100965.23;451433;117;922647;-63
2021/07/28 06:18:54;;;;;;;;;;;;;;;24.23;60.99;100971.34;452050;117;922784;-65
2021/07/28 06:19:58;;;;;;;;;;;;;;;24.26;60.99;100961.58;443015;120;922832;-66
2021/07/28 06:21:20;;;;;;;;;;;;;;;24.28;61.30;100974.07;449721;117;922563;-65
2021/07/28 06:22:24;;;;;;;;;;;;;;;24.31;61.17;100965.13;451062;117;922695;-66
2021/07/28 06:23:46;;;;;;;;;;;;;;;24.33;61.15;100964.81;445971;118;922718;-64
2021/07/28 06:24:50;;;;;;;;;;;;;;;24.34;61.18;100970.10;443193;119;923492;-64
2021/07/28 06:25:54;;;;;;;;;;;;;;;24.37;61.28;100968.66;452501;116;922665;-66
2021/07/28 06:26:58;;;;;;;;;;;;;;;24.39;61.26;100967.25;451695;117;924028;-65
2021/07/28 06:28:01;;;;;;;;;;;;;;;24.42;61.22;100969.42;451363;118;922759;-64
2021/07/28 06:29:05;;;;;;;;;;;;;;;24.44;61.17;100963.56;451806;116;922658;-67
2021/07/28 06:30:09;;;;;;;;;;;;;;;24.47;61.21;100962.98;445949;118;923393;-63
2021/07/28 06:31:12;;;;;;;;;;;;;;;24.49;61.19;100967.12;445962;118;923166;-64
2021/07/28 06:32:16;;;;;;;;;;;;;;;24.53;61.14;100964.59;447927;119;921425;-64
2021/07/28 06:33:20;;;;;;;;;;;;;;;24.56;61.01;100963.14;447014;118;922691;-63
2021/07/28 06:34:24;;;;;;;;;;;;;;;24.57;61.02;100964.80;446794;117;923677;-65
2021/07/28 06:35:27;;;;;;;;;;;;;;;24.60;60.96;100966.98;445608;118;922745;-66
2021/07/28 06:36:31;;;;;;;;;;;;;;;24.61;61.10;100963.07;447869;119;922643;-64
2021/07/28 06:37:53;;;;;;;;;;;;;;;24.62;61.09;100959.99;446976;118;922684;-65
2021/07/28 06:38:57;;;;;;;;;;;;;;;24.66;61.04;100965.79;446498;118;921438;-64
2021/07/28 06:40:00;;;;;;;;;;;;;;;24.68;60.96;100966.33;446972;117;921530;-65
2021/07/28 06:41:03;;;;;;;;;;;;;;;24.71;60.95;100960.14;447489;118;921586;-64
2021/07/28 06:42:06;;;;;;;;;;;;;;;24.74;60.90;100965.14;446643;117;921604;-63
2021/07/28 06:43:10;;;;;;;;;;;;;;;24.78;60.93;100955.86;445428;118;921772;-63
2021/07/28 06:44:13;;;;;;;;;;;;;;;24.80;60.97;100959.20;445831;118;921595;-64
2021/07/28 06:45:16;;;;;;;;;;;;;;;24.85;61.01;100958.28;448001;118;921432;-65
2021/07/28 06:46:37;;;;;;;;;;;;;;;24.88;60.79;100952.13;447561;118;921473;-65
2021/07/28 06:47:41;;;;;;;;;;;;;;;24.90;60.72;100952.66;446419;118;921611;-65
2021/07/28 06:48:44;;;;;;;;;;;;;;;24.90;60.76;100945.13;447118;118;921524;-63
2021/07/28 06:49:50;;;;;;;;;;;;;;;24.94;60.73;100945.34;448105;117;921533;-64
2021/07/28 06:50:53;;;;;;;;;;;;;;;24.97;60.76;100949.50;447624;118;921563;-63